sensor_id;sensor_type;location;lat;lon;timestamp;temperature;humidity
39045;DHT22;52192;52.002;5.956;2023-05-08T00:01:35;18.20;80.20
39045;DHT22;52192;52.002;5.956;2023-05-08T00:04:01;18.10;80.20
39045;DHT22;52192;52.002;5.956;2023-05-08T00:06:27;18.10;80.20
39045;DHT22;52192;52.002;5.956;2023-05-08T00:08:55;18.10;80.20
39045;DHT22;52192;52.002;5.956;2023-05-08T00:11:21;18.10;80.20
39045;DHT22;52192;52.002;5.956;2023-05-08T00:13:47;18.10;80.20
39045;DHT22;52192;52.002;5.956;2023-05-08T00:16:12;18.10;80.30
39045;DHT22;52192;52.002;5.956;2023-05-08T00:18:39;18.10;80.30
39045;DHT22;52192;52.002;5.956;2023-05-08T00:21:05;18.00;80.30
39045;DHT22;52192;52.002;5.956;2023-05-08T00:23:31;18.00;80.30
39045;DHT22;52192;52.002;5.956;2023-05-08T00:25:57;18.00;80.40
39045;DHT22;52192;52.002;5.956;2023-05-08T00:28:23;18.00;80.40
39045;DHT22;52192;52.002;5.956;2023-05-08T00:30:48;18.00;80.40
39045;DHT22;52192;52.002;5.956;2023-05-08T00:33:14;18.00;80.40
39045;DHT22;52192;52.002;5.956;2023-05-08T00:35:41;18.00;80.50
39045;DHT22;52192;52.002;5.956;2023-05-08T00:38:07;17.90;80.50
39045;DHT22;52192;52.002;5.956;2023-05-08T00:40:33;17.90;80.60
39045;DHT22;52192;52.002;5.956;2023-05-08T00:42:59;17.90;80.60
39045;DHT22;52192;52.002;5.956;2023-05-08T00:45:31;17.90;80.60
39045;DHT22;52192;52.002;5.956;2023-05-08T00:47:58;17.80;80.60
39045;DHT22;52192;52.002;5.956;2023-05-08T00:50:24;17.80;80.80
39045;DHT22;52192;52.002;5.956;2023-05-08T00:52:50;17.80;80.80
39045;DHT22;52192;52.002;5.956;2023-05-08T00:55:19;17.70;80.80
39045;DHT22;52192;52.002;5.956;2023-05-08T00:57:46;17.70;80.90
39045;DHT22;52192;52.002;5.956;2023-05-08T01:00:15;17.70;80.90
39045;DHT22;52192;52.002;5.956;2023-05-08T01:02:42;17.70;80.90
39045;DHT22;52192;52.002;5.956;2023-05-08T01:05:08;17.70;80.80
39045;DHT22;52192;52.002;5.956;2023-05-08T01:07:34;17.70;80.80
39045;DHT22;52192;52.002;5.956;2023-05-08T01:10:00;17.60;80.70
39045;DHT22;52192;52.002;5.956;2023-05-08T01:12:56;17.60;80.70
39045;DHT22;52192;52.002;5.956;2023-05-08T01:15:30;17.60;80.60
39045;DHT22;52192;52.002;5.956;2023-05-08T01:18:20;17.50;80.60
39045;DHT22;52192;52.002;5.956;2023-05-08T01:20:59;17.50;80.50
39045;DHT22;52192;52.002;5.956;2023-05-08T01:27:01;17.40;80.40
39045;DHT22;52192;52.002;5.956;2023-05-08T01:32:34;17.30;80.30
39045;DHT22;52192;52.002;5.956;2023-05-08T01:35:08;17.30;80.50
39045;DHT22;52192;52.002;5.956;2023-05-08T01:37:50;17.30;80.30
39045;DHT22;52192;52.002;5.956;2023-05-08T01:43:13;17.20;80.20
39045;DHT22;52192;52.002;5.956;2023-05-08T01:45:45;17.10;80.10
39045;DHT22;52192;52.002;5.956;2023-05-08T01:48:18;17.10;80.20
39045;DHT22;52192;52.002;5.956;2023-05-08T01:50:50;17.10;80.20
39045;DHT22;52192;52.002;5.956;2023-05-08T01:53:42;17.00;80.20
39045;DHT22;52192;52.002;5.956;2023-05-08T01:56:11;17.00;80.00
39045;DHT22;52192;52.002;5.956;2023-05-08T01:58:38;17.00;80.10
39045;DHT22;52192;52.002;5.956;2023-05-08T02:01:07;16.90;80.10
39045;DHT22;52192;52.002;5.956;2023-05-08T02:03:34;16.90;80.00
39045;DHT22;52192;52.002;5.956;2023-05-08T02:06:02;16.90;80.00
39045;DHT22;52192;52.002;5.956;2023-05-08T02:08:30;16.80;79.90
39045;DHT22;52192;52.002;5.956;2023-05-08T02:10:58;16.80;79.90
39045;DHT22;52192;52.002;5.956;2023-05-08T02:13:25;16.80;79.90
39045;DHT22;52192;52.002;5.956;2023-05-08T02:15:53;16.80;80.00
39045;DHT22;52192;52.002;5.956;2023-05-08T02:18:20;16.80;80.00
39045;DHT22;52192;52.002;5.956;2023-05-08T02:20:52;16.70;79.90
39045;DHT22;52192;52.002;5.956;2023-05-08T02:23:19;16.70;79.90
39045;DHT22;52192;52.002;5.956;2023-05-08T02:25:47;16.70;79.90
39045;DHT22;52192;52.002;5.956;2023-05-08T02:28:17;16.70;79.90
39045;DHT22;52192;52.002;5.956;2023-05-08T02:30:45;16.60;80.00
39045;DHT22;52192;52.002;5.956;2023-05-08T02:33:12;16.60;80.00
39045;DHT22;52192;52.002;5.956;2023-05-08T02:35:40;16.60;80.00
39045;DHT22;52192;52.002;5.956;2023-05-08T02:38:08;16.60;80.00
39045;DHT22;52192;52.002;5.956;2023-05-08T02:40:37;16.50;80.00
39045;DHT22;52192;52.002;5.956;2023-05-08T02:43:04;16.50;79.90
39045;DHT22;52192;52.002;5.956;2023-05-08T02:45:40;16.50;79.90
39045;DHT22;52192;52.002;5.956;2023-05-08T02:48:33;16.50;79.90
39045;DHT22;52192;52.002;5.956;2023-05-08T02:53:49;16.40;80.00
39045;DHT22;52192;52.002;5.956;2023-05-08T02:59:12;16.40;79.90
39045;DHT22;52192;52.002;5.956;2023-05-08T03:01:58;16.40;79.90
39045;DHT22;52192;52.002;5.956;2023-05-08T03:04:33;16.40;79.90
39045;DHT22;52192;52.002;5.956;2023-05-08T03:07:02;16.30;79.90
39045;DHT22;52192;52.002;5.956;2023-05-08T03:09:43;16.30;80.00
39045;DHT22;52192;52.002;5.956;2023-05-08T03:12:13;16.30;80.00
39045;DHT22;52192;52.002;5.956;2023-05-08T03:14:45;16.30;80.00
39045;DHT22;52192;52.002;5.956;2023-05-08T03:17:15;16.30;80.00
39045;DHT22;52192;52.002;5.956;2023-05-08T03:19:44;16.30;80.00
39045;DHT22;52192;52.002;5.956;2023-05-08T03:22:14;16.30;80.00
39045;DHT22;52192;52.002;5.956;2023-05-08T03:24:41;16.30;80.00
39045;DHT22;52192;52.002;5.956;2023-05-08T03:27:08;16.30;80.10
39045;DHT22;52192;52.002;5.956;2023-05-08T03:29:35;16.30;80.10
39045;DHT22;52192;52.002;5.956;2023-05-08T03:32:02;16.30;80.20
39045;DHT22;52192;52.002;5.956;2023-05-08T03:34:29;16.30;80.20
39045;DHT22;52192;52.002;5.956;2023-05-08T03:36:56;16.30;80.20
39045;DHT22;52192;52.002;5.956;2023-05-08T03:39:42;16.30;80.10
39045;DHT22;52192;52.002;5.956;2023-05-08T03:42:08;16.30;80.00
39045;DHT22;52192;52.002;5.956;2023-05-08T03:44:34;16.20;80.10
39045;DHT22;52192;52.002;5.956;2023-05-08T03:47:01;16.20;80.10
39045;DHT22;52192;52.002;5.956;2023-05-08T03:49:28;16.20;80.10
39045;DHT22;52192;52.002;5.956;2023-05-08T03:51:56;16.20;80.20
39045;DHT22;52192;52.002;5.956;2023-05-08T03:54:22;16.20;80.10
39045;DHT22;52192;52.002;5.956;2023-05-08T03:56:53;16.10;80.10
39045;DHT22;52192;52.002;5.956;2023-05-08T04:02:11;16.20;80.10
39045;DHT22;52192;52.002;5.956;2023-05-08T04:04:40;16.20;80.00
39045;DHT22;52192;52.002;5.956;2023-05-08T04:10:36;16.10;80.10
39045;DHT22;52192;52.002;5.956;2023-05-08T04:13:09;16.10;80.10
39045;DHT22;52192;52.002;5.956;2023-05-08T04:16:07;16.00;80.20
39045;DHT22;52192;52.002;5.956;2023-05-08T04:18:36;16.10;80.10
39045;DHT22;52192;52.002;5.956;2023-05-08T04:21:08;16.00;80.20
39045;DHT22;52192;52.002;5.956;2023-05-08T04:23:36;16.00;80.20
39045;DHT22;52192;52.002;5.956;2023-05-08T04:26:04;16.00;80.20
39045;DHT22;52192;52.002;5.956;2023-05-08T04:28:32;16.00;80.20
39045;DHT22;52192;52.002;5.956;2023-05-08T04:31:00;16.00;80.20
39045;DHT22;52192;52.002;5.956;2023-05-08T04:33:27;16.00;80.20
39045;DHT22;52192;52.002;5.956;2023-05-08T04:35:53;16.00;80.10
39045;DHT22;52192;52.002;5.956;2023-05-08T04:38:19;16.00;80.10
39045;DHT22;52192;52.002;5.956;2023-05-08T04:40:45;16.00;80.10
39045;DHT22;52192;52.002;5.956;2023-05-08T04:43:11;16.00;80.20
39045;DHT22;52192;52.002;5.956;2023-05-08T04:45:36;16.00;80.20
39045;DHT22;52192;52.002;5.956;2023-05-08T04:48:02;16.10;80.20
39045;DHT22;52192;52.002;5.956;2023-05-08T04:50:28;16.10;80.10
39045;DHT22;52192;52.002;5.956;2023-05-08T04:52:54;16.10;80.10
39045;DHT22;52192;52.002;5.956;2023-05-08T04:55:20;16.10;80.10
39045;DHT22;52192;52.002;5.956;2023-05-08T04:57:45;16.10;80.10
39045;DHT22;52192;52.002;5.956;2023-05-08T05:00:11;16.10;80.20
39045;DHT22;52192;52.002;5.956;2023-05-08T05:02:37;16.00;80.20
39045;DHT22;52192;52.002;5.956;2023-05-08T05:05:03;16.00;80.30
39045;DHT22;52192;52.002;5.956;2023-05-08T05:07:29;16.00;80.30
39045;DHT22;52192;52.002;5.956;2023-05-08T05:09:55;16.00;80.30
39045;DHT22;52192;52.002;5.956;2023-05-08T05:12:20;16.00;80.30
39045;DHT22;52192;52.002;5.956;2023-05-08T05:14:46;16.00;80.30
39045;DHT22;52192;52.002;5.956;2023-05-08T05:17:12;16.00;80.40
39045;DHT22;52192;52.002;5.956;2023-05-08T05:19:38;16.00;80.40
39045;DHT22;52192;52.002;5.956;2023-05-08T05:22:03;16.00;80.40
39045;DHT22;52192;52.002;5.956;2023-05-08T05:24:30;16.00;80.40
39045;DHT22;52192;52.002;5.956;2023-05-08T05:26:56;16.10;80.40
39045;DHT22;52192;52.002;5.956;2023-05-08T05:29:21;16.10;80.40
39045;DHT22;52192;52.002;5.956;2023-05-08T05:31:47;16.10;80.40
39045;DHT22;52192;52.002;5.956;2023-05-08T05:34:14;16.10;80.40
39045;DHT22;52192;52.002;5.956;2023-05-08T05:36:39;16.20;80.30
39045;DHT22;52192;52.002;5.956;2023-05-08T05:39:05;16.20;80.20
39045;DHT22;52192;52.002;5.956;2023-05-08T05:41:31;16.30;80.20
39045;DHT22;52192;52.002;5.956;2023-05-08T05:43:56;16.30;80.20
39045;DHT22;52192;52.002;5.956;2023-05-08T05:46:22;16.40;80.20
39045;DHT22;52192;52.002;5.956;2023-05-08T05:48:52;16.40;80.10
39045;DHT22;52192;52.002;5.956;2023-05-08T05:51:18;16.50;80.10
39045;DHT22;52192;52.002;5.956;2023-05-08T05:53:44;16.50;80.00
39045;DHT22;52192;52.002;5.956;2023-05-08T05:56:09;16.50;79.90
39045;DHT22;52192;52.002;5.956;2023-05-08T05:58:35;16.60;79.90
39045;DHT22;52192;52.002;5.956;2023-05-08T06:01:01;16.70;79.80
39045;DHT22;52192;52.002;5.956;2023-05-08T06:03:27;16.70;79.70
39045;DHT22;52192;52.002;5.956;2023-05-08T06:05:53;16.80;79.70
39045;DHT22;52192;52.002;5.956;2023-05-08T06:08:18;16.80;79.60
39045;DHT22;52192;52.002;5.956;2023-05-08T06:10:44;16.90;79.60
39045;DHT22;52192;52.002;5.956;2023-05-08T06:13:10;16.90;79.50
39045;DHT22;52192;52.002;5.956;2023-05-08T06:15:36;17.00;79.60
39045;DHT22;52192;52.002;5.956;2023-05-08T06:18:01;17.10;79.50
39045;DHT22;52192;52.002;5.956;2023-05-08T06:20:27;17.20;79.40
39045;DHT22;52192;52.002;5.956;2023-05-08T06:22:53;17.30;79.30
39045;DHT22;52192;52.002;5.956;2023-05-08T06:25:19;17.30;79.20
39045;DHT22;52192;52.002;5.956;2023-05-08T06:27:44;17.30;79.20
39045;DHT22;52192;52.002;5.956;2023-05-08T06:30:11;17.40;79.20
39045;DHT22;52192;52.002;5.956;2023-05-08T06:32:36;17.40;79.20
39045;DHT22;52192;52.002;5.956;2023-05-08T06:35:02;17.50;79.20
39045;DHT22;52192;52.002;5.956;2023-05-08T06:37:28;17.50;79.20
39045;DHT22;52192;52.002;5.956;2023-05-08T06:39:54;17.60;79.30
39045;DHT22;52192;52.002;5.956;2023-05-08T06:42:19;17.60;79.30
39045;DHT22;52192;52.002;5.956;2023-05-08T06:44:45;17.60;79.20
39045;DHT22;52192;52.002;5.956;2023-05-08T06:47:11;17.60;79.20
39045;DHT22;52192;52.002;5.956;2023-05-08T06:49:37;17.50;79.10
39045;DHT22;52192;52.002;5.956;2023-05-08T06:52:02;17.50;79.20
39045;DHT22;52192;52.002;5.956;2023-05-08T06:54:28;17.50;79.30
39045;DHT22;52192;52.002;5.956;2023-05-08T06:56:54;17.50;79.40
39045;DHT22;52192;52.002;5.956;2023-05-08T06:59:20;17.60;79.50
39045;DHT22;52192;52.002;5.956;2023-05-08T07:01:47;17.60;79.40
39045;DHT22;52192;52.002;5.956;2023-05-08T07:04:23;17.80;79.30
39045;DHT22;52192;52.002;5.956;2023-05-08T07:06:49;17.80;79.10
39045;DHT22;52192;52.002;5.956;2023-05-08T07:09:14;17.90;79.00
39045;DHT22;52192;52.002;5.956;2023-05-08T07:11:41;17.90;78.90
39045;DHT22;52192;52.002;5.956;2023-05-08T07:14:07;17.90;78.90
39045;DHT22;52192;52.002;5.956;2023-05-08T07:16:33;17.90;78.70
39045;DHT22;52192;52.002;5.956;2023-05-08T07:18:58;17.90;78.80
39045;DHT22;52192;52.002;5.956;2023-05-08T07:21:43;18.00;78.70
39045;DHT22;52192;52.002;5.956;2023-05-08T07:24:10;18.00;78.70
39045;DHT22;52192;52.002;5.956;2023-05-08T07:26:37;18.10;78.70
39045;DHT22;52192;52.002;5.956;2023-05-08T07:32:07;18.40;78.40
39045;DHT22;52192;52.002;5.956;2023-05-08T07:34:33;18.50;78.30
39045;DHT22;52192;52.002;5.956;2023-05-08T07:36:59;18.70;78.10
39045;DHT22;52192;52.002;5.956;2023-05-08T07:39:25;18.90;77.80
39045;DHT22;52192;52.002;5.956;2023-05-08T07:41:50;19.00;77.50
39045;DHT22;52192;52.002;5.956;2023-05-08T07:44:16;19.10;77.50
39045;DHT22;52192;52.002;5.956;2023-05-08T07:46:42;19.20;77.30
39045;DHT22;52192;52.002;5.956;2023-05-08T07:49:07;19.20;77.20
39045;DHT22;52192;52.002;5.956;2023-05-08T07:51:52;19.20;77.10
39045;DHT22;52192;52.002;5.956;2023-05-08T07:54:17;19.20;77.40
39045;DHT22;52192;52.002;5.956;2023-05-08T07:56:43;19.10;77.50
39045;DHT22;52192;52.002;5.956;2023-05-08T07:59:09;19.20;77.80
39045;DHT22;52192;52.002;5.956;2023-05-08T08:01:35;19.20;77.80
39045;DHT22;52192;52.002;5.956;2023-05-08T08:04:00;19.20;77.80
39045;DHT22;52192;52.002;5.956;2023-05-08T08:09:29;19.30;77.80
39045;DHT22;52192;52.002;5.956;2023-05-08T08:11:55;19.30;77.90
39045;DHT22;52192;52.002;5.956;2023-05-08T08:14:21;19.30;77.80
39045;DHT22;52192;52.002;5.956;2023-05-08T08:16:47;19.20;77.70
39045;DHT22;52192;52.002;5.956;2023-05-08T08:19:12;19.20;77.80
39045;DHT22;52192;52.002;5.956;2023-05-08T08:21:42;19.20;77.90
39045;DHT22;52192;52.002;5.956;2023-05-08T08:24:09;19.20;77.80
39045;DHT22;52192;52.002;5.956;2023-05-08T08:26:35;19.30;77.90
39045;DHT22;52192;52.002;5.956;2023-05-08T08:29:00;19.30;77.90
39045;DHT22;52192;52.002;5.956;2023-05-08T08:31:26;19.40;77.80
39045;DHT22;52192;52.002;5.956;2023-05-08T08:33:52;19.50;77.90
39045;DHT22;52192;52.002;5.956;2023-05-08T08:36:18;19.60;77.80
39045;DHT22;52192;52.002;5.956;2023-05-08T08:38:44;19.60;77.80
39045;DHT22;52192;52.002;5.956;2023-05-08T08:41:12;19.60;77.70
39045;DHT22;52192;52.002;5.956;2023-05-08T08:43:39;19.60;77.70
39045;DHT22;52192;52.002;5.956;2023-05-08T08:46:12;19.60;77.70
39045;DHT22;52192;52.002;5.956;2023-05-08T08:48:43;19.60;77.70
39045;DHT22;52192;52.002;5.956;2023-05-08T08:51:17;19.70;77.70
39045;DHT22;52192;52.002;5.956;2023-05-08T08:53:45;19.80;77.50
39045;DHT22;52192;52.002;5.956;2023-05-08T08:56:14;19.90;77.20
39045;DHT22;52192;52.002;5.956;2023-05-08T08:58:55;20.00;77.20
39045;DHT22;52192;52.002;5.956;2023-05-08T09:01:23;20.10;77.10
39045;DHT22;52192;52.002;5.956;2023-05-08T09:03:49;20.20;77.00
39045;DHT22;52192;52.002;5.956;2023-05-08T09:06:15;20.40;76.90
39045;DHT22;52192;52.002;5.956;2023-05-08T09:08:41;20.50;76.70
39045;DHT22;52192;52.002;5.956;2023-05-08T09:11:07;20.50;76.70
39045;DHT22;52192;52.002;5.956;2023-05-08T09:13:33;20.50;76.60
39045;DHT22;52192;52.002;5.956;2023-05-08T09:15:59;20.50;76.60
39045;DHT22;52192;52.002;5.956;2023-05-08T09:18:25;20.60;76.70
39045;DHT22;52192;52.002;5.956;2023-05-08T09:20:51;20.70;76.50
39045;DHT22;52192;52.002;5.956;2023-05-08T09:23:17;20.90;76.30
39045;DHT22;52192;52.002;5.956;2023-05-08T09:26:02;21.10;76.00
39045;DHT22;52192;52.002;5.956;2023-05-08T09:28:28;21.20;75.60
39045;DHT22;52192;52.002;5.956;2023-05-08T09:30:58;21.30;75.50
39045;DHT22;52192;52.002;5.956;2023-05-08T09:33:28;21.50;75.30
39045;DHT22;52192;52.002;5.956;2023-05-08T09:35:54;21.50;75.00
39045;DHT22;52192;52.002;5.956;2023-05-08T09:38:39;21.60;74.80
39045;DHT22;52192;52.002;5.956;2023-05-08T09:41:13;21.70;74.50
39045;DHT22;52192;52.002;5.956;2023-05-08T09:43:40;21.70;74.30
39045;DHT22;52192;52.002;5.956;2023-05-08T09:52:30;21.90;73.90
39045;DHT22;52192;52.002;5.956;2023-05-08T09:54:57;21.80;73.80
39045;DHT22;52192;52.002;5.956;2023-05-08T09:57:31;21.80;74.20
39045;DHT22;52192;52.002;5.956;2023-05-08T10:02:38;22.00;74.00
39045;DHT22;52192;52.002;5.956;2023-05-08T10:07:50;22.10;73.50
39045;DHT22;52192;52.002;5.956;2023-05-08T10:10:22;22.10;73.40
39045;DHT22;52192;52.002;5.956;2023-05-08T10:12:51;22.10;73.40
39045;DHT22;52192;52.002;5.956;2023-05-08T10:15:22;22.20;73.30
39045;DHT22;52192;52.002;5.956;2023-05-08T10:18:01;22.40;73.20
39045;DHT22;52192;52.002;5.956;2023-05-08T10:20:29;22.50;72.40
39045;DHT22;52192;52.002;5.956;2023-05-08T10:22:56;22.40;72.60
39045;DHT22;52192;52.002;5.956;2023-05-08T10:25:23;22.40;72.60
39045;DHT22;52192;52.002;5.956;2023-05-08T10:27:55;22.40;72.70
39045;DHT22;52192;52.002;5.956;2023-05-08T10:30:25;22.40;72.40
39045;DHT22;52192;52.002;5.956;2023-05-08T10:32:52;22.40;72.20
39045;DHT22;52192;52.002;5.956;2023-05-08T10:35:22;22.50;72.10
39045;DHT22;52192;52.002;5.956;2023-05-08T10:37:48;22.60;72.10
39045;DHT22;52192;52.002;5.956;2023-05-08T10:40:14;22.80;71.90
39045;DHT22;52192;52.002;5.956;2023-05-08T10:42:43;23.00;71.40
39045;DHT22;52192;52.002;5.956;2023-05-08T10:45:10;23.20;71.30
39045;DHT22;52192;52.002;5.956;2023-05-08T10:48:02;23.50;70.80
39045;DHT22;52192;52.002;5.956;2023-05-08T10:50:50;23.50;69.70
39045;DHT22;52192;52.002;5.956;2023-05-08T10:53:33;23.40;70.00
39045;DHT22;52192;52.002;5.956;2023-05-08T10:56:01;23.20;70.40
39045;DHT22;52192;52.002;5.956;2023-05-08T10:58:35;23.10;70.90
39045;DHT22;52192;52.002;5.956;2023-05-08T11:03:42;22.70;70.60
39045;DHT22;52192;52.002;5.956;2023-05-08T11:06:08;22.50;71.10
39045;DHT22;52192;52.002;5.956;2023-05-08T11:08:44;22.40;71.60
39045;DHT22;52192;52.002;5.956;2023-05-08T11:11:23;22.30;71.90
39045;DHT22;52192;52.002;5.956;2023-05-08T11:17:22;22.00;72.00
39045;DHT22;52192;52.002;5.956;2023-05-08T11:23:30;21.60;72.70
39045;DHT22;52192;52.002;5.956;2023-05-08T11:26:12;21.50;73.50
39045;DHT22;52192;52.002;5.956;2023-05-08T11:28:40;21.20;75.20
39045;DHT22;52192;52.002;5.956;2023-05-08T11:31:19;20.70;76.30
39045;DHT22;52192;52.002;5.956;2023-05-08T11:33:45;20.40;77.00
39045;DHT22;52192;52.002;5.956;2023-05-08T11:36:19;20.20;77.50
39045;DHT22;52192;52.002;5.956;2023-05-08T11:39:08;20.20;77.90
39045;DHT22;52192;52.002;5.956;2023-05-08T11:41:37;20.20;78.10
39045;DHT22;52192;52.002;5.956;2023-05-08T11:46:59;20.10;78.60
39045;DHT22;52192;52.002;5.956;2023-05-08T11:49:27;20.20;79.10
39045;DHT22;52192;52.002;5.956;2023-05-08T11:51:57;20.20;79.20
39045;DHT22;52192;52.002;5.956;2023-05-08T11:54:24;20.20;79.20
39045;DHT22;52192;52.002;5.956;2023-05-08T11:56:53;20.30;79.30
39045;DHT22;52192;52.002;5.956;2023-05-08T11:59:19;20.30;79.30
39045;DHT22;52192;52.002;5.956;2023-05-08T12:01:47;20.40;79.40
39045;DHT22;52192;52.002;5.956;2023-05-08T12:04:13;20.50;79.60
39045;DHT22;52192;52.002;5.956;2023-05-08T12:06:40;20.50;80.00
39045;DHT22;52192;52.002;5.956;2023-05-08T12:09:14;20.60;79.90
39045;DHT22;52192;52.002;5.956;2023-05-08T12:11:41;20.80;79.90
39045;DHT22;52192;52.002;5.956;2023-05-08T12:14:09;20.80;80.40
39045;DHT22;52192;52.002;5.956;2023-05-08T12:16:36;21.00;79.80
39045;DHT22;52192;52.002;5.956;2023-05-08T12:19:03;21.10;79.70
39045;DHT22;52192;52.002;5.956;2023-05-08T12:24:33;21.40;79.20
39045;DHT22;52192;52.002;5.956;2023-05-08T12:26:59;21.40;79.10
39045;DHT22;52192;52.002;5.956;2023-05-08T12:29:25;21.30;78.90
39045;DHT22;52192;52.002;5.956;2023-05-08T12:31:51;21.30;79.00
39045;DHT22;52192;52.002;5.956;2023-05-08T12:34:18;21.30;79.00
39045;DHT22;52192;52.002;5.956;2023-05-08T12:36:44;21.30;79.20
39045;DHT22;52192;52.002;5.956;2023-05-08T12:39:17;21.30;79.30
39045;DHT22;52192;52.002;5.956;2023-05-08T12:41:50;21.40;79.50
39045;DHT22;52192;52.002;5.956;2023-05-08T12:44:17;21.40;79.50
39045;DHT22;52192;52.002;5.956;2023-05-08T12:46:49;21.30;79.60
39045;DHT22;52192;52.002;5.956;2023-05-08T12:49:28;21.30;79.70
39045;DHT22;52192;52.002;5.956;2023-05-08T12:52:06;21.30;79.80
39045;DHT22;52192;52.002;5.956;2023-05-08T12:54:36;21.30;79.90
39045;DHT22;52192;52.002;5.956;2023-05-08T12:57:13;21.30;80.00
39045;DHT22;52192;52.002;5.956;2023-05-08T12:59:40;21.30;80.10
39045;DHT22;52192;52.002;5.956;2023-05-08T13:02:19;21.40;80.40
39045;DHT22;52192;52.002;5.956;2023-05-08T13:04:52;21.50;80.30
39045;DHT22;52192;52.002;5.956;2023-05-08T13:07:18;21.70;80.20
39045;DHT22;52192;52.002;5.956;2023-05-08T13:09:57;22.00;79.70
39045;DHT22;52192;52.002;5.956;2023-05-08T13:12:24;22.30;79.10
39045;DHT22;52192;52.002;5.956;2023-05-08T13:14:50;22.40;78.60
39045;DHT22;52192;52.002;5.956;2023-05-08T13:17:17;22.50;78.40
39045;DHT22;52192;52.002;5.956;2023-05-08T13:19:43;22.50;78.40
39045;DHT22;52192;52.002;5.956;2023-05-08T13:22:09;22.50;78.30
39045;DHT22;52192;52.002;5.956;2023-05-08T13:24:38;22.50;78.40
39045;DHT22;52192;52.002;5.956;2023-05-08T13:27:04;22.40;78.40
39045;DHT22;52192;52.002;5.956;2023-05-08T13:29:30;22.40;78.50
39045;DHT22;52192;52.002;5.956;2023-05-08T13:31:56;22.50;78.60
39045;DHT22;52192;52.002;5.956;2023-05-08T13:34:22;22.50;78.50
39045;DHT22;52192;52.002;5.956;2023-05-08T13:36:49;22.60;78.60
39045;DHT22;52192;52.002;5.956;2023-05-08T13:39:15;22.70;78.50
39045;DHT22;52192;52.002;5.956;2023-05-08T13:41:41;22.70;78.40
39045;DHT22;52192;52.002;5.956;2023-05-08T13:44:07;22.80;78.30
39045;DHT22;52192;52.002;5.956;2023-05-08T13:46:32;22.80;77.90
39045;DHT22;52192;52.002;5.956;2023-05-08T13:48:58;22.90;77.70
39045;DHT22;52192;52.002;5.956;2023-05-08T13:51:24;22.90;77.70
39045;DHT22;52192;52.002;5.956;2023-05-08T13:53:50;22.90;77.70
39045;DHT22;52192;52.002;5.956;2023-05-08T13:56:15;23.00;77.70
39045;DHT22;52192;52.002;5.956;2023-05-08T13:58:41;23.10;77.60
39045;DHT22;52192;52.002;5.956;2023-05-08T14:01:07;23.20;77.50
39045;DHT22;52192;52.002;5.956;2023-05-08T14:03:33;23.20;77.30
39045;DHT22;52192;52.002;5.956;2023-05-08T14:05:58;23.30;77.10
39045;DHT22;52192;52.002;5.956;2023-05-08T14:08:24;23.50;77.00
39045;DHT22;52192;52.002;5.956;2023-05-08T14:10:50;23.70;76.80
39045;DHT22;52192;52.002;5.956;2023-05-08T14:13:17;23.90;76.40
39045;DHT22;52192;52.002;5.956;2023-05-08T14:15:42;24.10;75.90
39045;DHT22;52192;52.002;5.956;2023-05-08T14:18:08;24.30;75.60
39045;DHT22;52192;52.002;5.956;2023-05-08T14:20:34;24.50;75.00
39045;DHT22;52192;52.002;5.956;2023-05-08T14:23:00;24.60;74.70
39045;DHT22;52192;52.002;5.956;2023-05-08T14:25:26;24.70;74.10
39045;DHT22;52192;52.002;5.956;2023-05-08T14:27:51;24.70;74.00
39045;DHT22;52192;52.002;5.956;2023-05-08T14:30:17;24.80;74.10
39045;DHT22;52192;52.002;5.956;2023-05-08T14:32:43;24.70;74.00
39045;DHT22;52192;52.002;5.956;2023-05-08T14:35:09;24.70;73.90
39045;DHT22;52192;52.002;5.956;2023-05-08T14:37:35;24.60;73.80
39045;DHT22;52192;52.002;5.956;2023-05-08T14:40:00;24.50;74.20
39045;DHT22;52192;52.002;5.956;2023-05-08T14:42:26;24.50;73.60
39045;DHT22;52192;52.002;5.956;2023-05-08T14:44:52;24.40;73.40
39045;DHT22;52192;52.002;5.956;2023-05-08T14:47:17;24.40;73.20
39045;DHT22;52192;52.002;5.956;2023-05-08T14:49:43;24.40;72.70
39045;DHT22;52192;52.002;5.956;2023-05-08T14:52:09;24.30;73.00
39045;DHT22;52192;52.002;5.956;2023-05-08T14:54:34;24.30;73.30
39045;DHT22;52192;52.002;5.956;2023-05-08T14:57:00;24.10;73.80
39045;DHT22;52192;52.002;5.956;2023-05-08T14:59:26;23.90;73.80
39045;DHT22;52192;52.002;5.956;2023-05-08T15:01:52;23.80;74.10
39045;DHT22;52192;52.002;5.956;2023-05-08T15:04:17;23.70;74.10
39045;DHT22;52192;52.002;5.956;2023-05-08T15:06:43;23.60;73.90
39045;DHT22;52192;52.002;5.956;2023-05-08T15:09:09;23.50;73.30
39045;DHT22;52192;52.002;5.956;2023-05-08T15:14:38;23.20;73.90
39045;DHT22;52192;52.002;5.956;2023-05-08T15:17:03;23.10;74.20
39045;DHT22;52192;52.002;5.956;2023-05-08T15:19:29;23.00;74.40
39045;DHT22;52192;52.002;5.956;2023-05-08T15:21:55;22.80;74.60
39045;DHT22;52192;52.002;5.956;2023-05-08T15:24:21;22.80;74.80
39045;DHT22;52192;52.002;5.956;2023-05-08T15:26:46;22.70;75.20
39045;DHT22;52192;52.002;5.956;2023-05-08T15:29:12;22.70;75.60
39045;DHT22;52192;52.002;5.956;2023-05-08T15:31:38;22.60;75.90
39045;DHT22;52192;52.002;5.956;2023-05-08T15:34:03;22.50;76.30
39045;DHT22;52192;52.002;5.956;2023-05-08T15:36:29;22.50;76.50
39045;DHT22;52192;52.002;5.956;2023-05-08T15:38:58;22.50;76.30
39045;DHT22;52192;52.002;5.956;2023-05-08T15:44:49;22.50;76.00
39045;DHT22;52192;52.002;5.956;2023-05-08T15:47:14;22.60;76.00
39045;DHT22;52192;52.002;5.956;2023-05-08T15:49:40;22.60;76.00
39045;DHT22;52192;52.002;5.956;2023-05-08T15:52:06;22.70;75.80
39045;DHT22;52192;52.002;5.956;2023-05-08T15:54:32;22.90;75.60
39045;DHT22;52192;52.002;5.956;2023-05-08T15:56:57;22.90;75.40
39045;DHT22;52192;52.002;5.956;2023-05-08T15:59:23;23.00;75.50
39045;DHT22;52192;52.002;5.956;2023-05-08T16:01:49;23.00;75.30
39045;DHT22;52192;52.002;5.956;2023-05-08T16:04:15;23.00;75.10
39045;DHT22;52192;52.002;5.956;2023-05-08T16:06:40;23.10;75.10
39045;DHT22;52192;52.002;5.956;2023-05-08T16:09:06;23.10;75.20
39045;DHT22;52192;52.002;5.956;2023-05-08T16:11:32;23.10;75.30
39045;DHT22;52192;52.002;5.956;2023-05-08T16:13:58;23.10;75.50
39045;DHT22;52192;52.002;5.956;2023-05-08T16:16:27;23.10;75.40
39045;DHT22;52192;52.002;5.956;2023-05-08T16:18:53;23.20;75.40
39045;DHT22;52192;52.002;5.956;2023-05-08T16:21:19;23.30;75.40
39045;DHT22;52192;52.002;5.956;2023-05-08T16:23:45;23.30;75.30
39045;DHT22;52192;52.002;5.956;2023-05-08T16:26:13;23.40;75.30
39045;DHT22;52192;52.002;5.956;2023-05-08T16:28:40;23.40;75.30
39045;DHT22;52192;52.002;5.956;2023-05-08T16:31:09;23.30;75.10
39045;DHT22;52192;52.002;5.956;2023-05-08T16:33:36;23.20;75.20
39045;DHT22;52192;52.002;5.956;2023-05-08T16:36:02;23.10;75.50
39045;DHT22;52192;52.002;5.956;2023-05-08T16:38:27;23.00;75.70